sensor_id;sensor_type;location;lat;lon;timestamp;pressure;altitude;pressure_sealevel;temperature;humidity
29045;BME280;16133;49.486;12.176;2022-08-21T00:02:51;97246.53;;;16.56;100.00
29045;BME280;16133;49.486;12.176;2022-08-21T00:05:18;97252.94;;;16.55;100.00
29045;BME280;16133;49.486;12.176;2022-08-21T00:07:44;97263.66;;;16.55;100.00
29045;BME280;16133;49.486;12.176;2022-08-21T00:10:10;97255.63;;;16.55;100.00
29045;BME280;16133;49.486;12.176;2022-08-21T00:12:36;97256.66;;;16.54;100.00
29045;BME280;16133;49.486;12.176;2022-08-21T00:15:04;97246.38;;;16.51;100.00
29045;BME280;16133;49.486;12.176;2022-08-21T00:17:30;97257.31;;;16.50;100.00
29045;BME280;16133;49.486;12.176;2022-08-21T00:19:56;97250.81;;;16.39;100.00
29045;BME280;16133;49.486;12.176;2022-08-21T00:22:21;97260.50;;;16.40;100.00
29045;BME280;16133;49.486;12.176;2022-08-21T00:24:46;97237.91;;;16.30;100.00
29045;BME280;16133;49.486;12.176;2022-08-21T00:27:15;97245.53;;;16.33;100.00
29045;BME280;16133;49.486;12.176;2022-08-21T00:29:40;97244.72;;;16.32;100.00
29045;BME280;16133;49.486;12.176;2022-08-21T00:32:05;97248.22;;;16.33;100.00
29045;BME280;16133;49.486;12.176;2022-08-21T00:34:31;97238.72;;;16.30;100.00
29045;BME280;16133;49.486;12.176;2022-08-21T00:36:56;97215.16;;;16.20;100.00
29045;BME280;16133;49.486;12.176;2022-08-21T00:39:22;97190.97;;;16.09;100.00
29045;BME280;16133;49.486;12.176;2022-08-21T00:41:47;97210.75;;;16.26;100.00
29045;BME280;16133;49.486;12.176;2022-08-21T00:44:13;97213.59;;;16.31;100.00
29045;BME280;16133;49.486;12.176;2022-08-21T00:46:40;97211.50;;;16.33;100.00
29045;BME280;16133;49.486;12.176;2022-08-21T00:49:07;97209.44;;;16.35;100.00
29045;BME280;16133;49.486;12.176;2022-08-21T00:51:50;97212.94;;;16.36;100.00
29045;BME280;16133;49.486;12.176;2022-08-21T00:54:18;97213.97;;;16.35;100.00
29045;BME280;16133;49.486;12.176;2022-08-21T00:56:52;97210.28;;;16.36;100.00
29045;BME280;16133;49.486;12.176;2022-08-21T00:59:19;97215.84;;;16.34;100.00
29045;BME280;16133;49.486;12.176;2022-08-21T01:01:45;97213.16;;;16.34;100.00
29045;BME280;16133;49.486;12.176;2022-08-21T01:04:11;97208.63;;;16.35;100.00
29045;BME280;16133;49.486;12.176;2022-08-21T01:06:36;97207.22;;;16.32;100.00
29045;BME280;16133;49.486;12.176;2022-08-21T01:09:02;97197.53;;;16.31;100.00
29045;BME280;16133;49.486;12.176;2022-08-21T01:11:28;97203.84;;;16.37;100.00
29045;BME280;16133;49.486;12.176;2022-08-21T01:13:53;97205.28;;;16.39;100.00
29045;BME280;16133;49.486;12.176;2022-08-21T01:16:21;97206.94;;;16.40;100.00
29045;BME280;16133;49.486;12.176;2022-08-21T01:18:48;97194.22;;;16.36;100.00
29045;BME280;16133;49.486;12.176;2022-08-21T01:21:19;97199.94;;;16.39;100.00
29045;BME280;16133;49.486;12.176;2022-08-21T01:23:48;97196.94;;;16.29;100.00
29045;BME280;16133;49.486;12.176;2022-08-21T01:26:16;97204.91;;;16.36;100.00
29045;BME280;16133;49.486;12.176;2022-08-21T01:28:50;97207.59;;;16.36;100.00
29045;BME280;16133;49.486;12.176;2022-08-21T01:31:19;97199.03;;;16.27;100.00
29045;BME280;16133;49.486;12.176;2022-08-21T01:33:47;97202.53;;;16.27;100.00
29045;BME280;16133;49.486;12.176;2022-08-21T01:36:12;97209.06;;;16.32;100.00
29045;BME280;16133;49.486;12.176;2022-08-21T01:38:37;97199.47;;;16.24;100.00
29045;BME280;16133;49.486;12.176;2022-08-21T01:41:03;97212.78;;;16.31;100.00
29045;BME280;16133;49.486;12.176;2022-08-21T01:43:28;97203.34;;;16.28;100.00
29045;BME280;16133;49.486;12.176;2022-08-21T01:45:53;97206.97;;;16.34;100.00
29045;BME280;16133;49.486;12.176;2022-08-21T01:48:19;97210.28;;;16.36;100.00
29045;BME280;16133;49.486;12.176;2022-08-21T01:50:44;97206.78;;;16.35;100.00
29045;BME280;16133;49.486;12.176;2022-08-21T01:53:09;97211.88;;;16.37;100.00
29045;BME280;16133;49.486;12.176;2022-08-21T01:55:35;97209.44;;;16.35;100.00
29045;BME280;16133;49.486;12.176;2022-08-21T01:58:00;97199.84;;;16.27;100.00
29045;BME280;16133;49.486;12.176;2022-08-21T02:00:25;97214.34;;;16.38;100.00
29045;BME280;16133;49.486;12.176;2022-08-21T02:02:51;97198.56;;;16.30;100.00
29045;BME280;16133;49.486;12.176;2022-08-21T02:05:17;97220.53;;;16.39;100.00
29045;BME280;16133;49.486;12.176;2022-08-21T02:07:47;97216.22;;;16.38;100.00
29045;BME280;16133;49.486;12.176;2022-08-21T02:10:16;97220.75;;;16.37;100.00
29045;BME280;16133;49.486;12.176;2022-08-21T02:12:42;97193.50;;;16.22;100.00
29045;BME280;16133;49.486;12.176;2022-08-21T02:15:08;97209.91;;;16.32;100.00
29045;BME280;16133;49.486;12.176;2022-08-21T02:17:52;97204.91;;;16.36;100.00
29045;BME280;16133;49.486;12.176;2022-08-21T02:20:24;97180.34;;;16.20;100.00
29045;BME280;16133;49.486;12.176;2022-08-21T02:22:50;97178.53;;;16.14;100.00
29045;BME280;16133;49.486;12.176;2022-08-21T02:25:17;97200.06;;;16.26;100.00
29045;BME280;16133;49.486;12.176;2022-08-21T02:27:45;97196.34;;;16.27;100.00
29045;BME280;16133;49.486;12.176;2022-08-21T02:30:20;97170.19;;;16.04;100.00
29045;BME280;16133;49.486;12.176;2022-08-21T02:32:47;97183.06;;;16.14;100.00
29045;BME280;16133;49.486;12.176;2022-08-21T02:35:12;97195.16;;;16.23;100.00
29045;BME280;16133;49.486;12.176;2022-08-21T02:40:15;97198.25;;;16.20;100.00
29045;BME280;16133;49.486;12.176;2022-08-21T02:42:41;97206.06;;;16.21;100.00
29045;BME280;16133;49.486;12.176;2022-08-21T02:45:09;97199.09;;;16.20;100.00
29045;BME280;16133;49.486;12.176;2022-08-21T02:47:34;97203.19;;;16.23;100.00
29045;BME280;16133;49.486;12.176;2022-08-21T02:50:00;97192.81;;;16.08;100.00
29045;BME280;16133;49.486;12.176;2022-08-21T02:52:25;97191.72;;;16.16;100.00
29045;BME280;16133;49.486;12.176;2022-08-21T02:54:50;97200.94;;;16.20;100.00
29045;BME280;16133;49.486;12.176;2022-08-21T02:57:15;97200.13;;;16.19;100.00
29045;BME280;16133;49.486;12.176;2022-08-21T02:59:41;97212.22;;;16.22;100.00
29045;BME280;16133;49.486;12.176;2022-08-21T03:02:06;97173.06;;;16.03;100.00
29045;BME280;16133;49.486;12.176;2022-08-21T03:04:32;97193.13;;;16.18;100.00
29045;BME280;16133;49.486;12.176;2022-08-21T03:06:57;97211.22;;;16.23;100.00
29045;BME280;16133;49.486;12.176;2022-08-21T03:09:23;97201.22;;;16.12;100.00
29045;BME280;16133;49.486;12.176;2022-08-21T03:11:49;97216.19;;;16.19;100.00
29045;BME280;16133;49.486;12.176;2022-08-21T03:14:15;97209.25;;;16.12;100.00
29045;BME280;16133;49.486;12.176;2022-08-21T03:16:40;97213.72;;;16.18;100.00
29045;BME280;16133;49.486;12.176;2022-08-21T03:19:07;97223.38;;;16.19;100.00
29045;BME280;16133;49.486;12.176;2022-08-21T03:21:32;97223.59;;;16.17;100.00
29045;BME280;16133;49.486;12.176;2022-08-21T03:23:58;97205.16;;;16.09;100.00
29045;BME280;16133;49.486;12.176;2022-08-21T03:26:23;97201.66;;;16.09;100.00
29045;BME280;16133;49.486;12.176;2022-08-21T03:28:49;97201.66;;;16.09;100.00
29045;BME280;16133;49.486;12.176;2022-08-21T03:31:15;97201.94;;;16.01;100.00
29045;BME280;16133;49.486;12.176;2022-08-21T03:33:42;97198.06;;;15.97;100.00
29045;BME280;16133;49.486;12.176;2022-08-21T03:36:07;97198.59;;;16.05;100.00
29045;BME280;16133;49.486;12.176;2022-08-21T03:38:35;97218.31;;;16.11;100.00
29045;BME280;16133;49.486;12.176;2022-08-21T03:41:01;97215.03;;;16.09;100.00
29045;BME280;16133;49.486;12.176;2022-08-21T03:43:28;97213.41;;;16.08;100.00
29045;BME280;16133;49.486;12.176;2022-08-21T03:45:53;97219.13;;;16.11;100.00
29045;BME280;16133;49.486;12.176;2022-08-21T03:48:19;97207.22;;;16.07;100.00
29045;BME280;16133;49.486;12.176;2022-08-21T03:50:44;97216.00;;;16.14;100.00
29045;BME280;16133;49.486;12.176;2022-08-21T03:53:12;97213.13;;;16.16;100.00
29045;BME280;16133;49.486;12.176;2022-08-21T03:55:38;97203.44;;;16.15;100.00
29045;BME280;16133;49.486;12.176;2022-08-21T03:58:03;97197.66;;;16.18;100.00
29045;BME280;16133;49.486;12.176;2022-08-21T04:00:29;97195.22;;;16.16;100.00
29045;BME280;16133;49.486;12.176;2022-08-21T04:02:54;97193.94;;;16.19;100.00
29045;BME280;16133;49.486;12.176;2022-08-21T04:05:20;97212.63;;;16.25;100.00
29045;BME280;16133;49.486;12.176;2022-08-21T04:08:00;97208.16;;;16.19;100.00
29045;BME280;16133;49.486;12.176;2022-08-21T04:10:27;97222.75;;;16.23;100.00
29045;BME280;16133;49.486;12.176;2022-08-21T04:12:54;97222.34;;;16.20;100.00
29045;BME280;16133;49.486;12.176;2022-08-21T04:15:21;97217.75;;;16.27;100.00
29045;BME280;16133;49.486;12.176;2022-08-21T04:17:47;97196.91;;;16.11;100.00
29045;BME280;16133;49.486;12.176;2022-08-21T04:20:14;97217.84;;;16.20;100.00
29045;BME280;16133;49.486;12.176;2022-08-21T04:22:39;97230.13;;;16.28;100.00
29045;BME280;16133;49.486;12.176;2022-08-21T04:25:05;97227.44;;;16.28;100.00
29045;BME280;16133;49.486;12.176;2022-08-21T04:27:32;97213.69;;;16.24;100.00
29045;BME280;16133;49.486;12.176;2022-08-21T04:29:57;97210.19;;;16.24;100.00
29045;BME280;16133;49.486;12.176;2022-08-21T04:32:23;97220.44;;;16.27;100.00
29045;BME280;16133;49.486;12.176;2022-08-21T04:34:49;97236.22;;;16.35;100.00
29045;BME280;16133;49.486;12.176;2022-08-21T04:37:15;97228.91;;;16.24;100.00
29045;BME280;16133;49.486;12.176;2022-08-21T04:39:41;97228.41;;;16.34;100.00
29045;BME280;16133;49.486;12.176;2022-08-21T04:42:06;97235.41;;;16.35;100.00
29045;BME280;16133;49.486;12.176;2022-08-21T04:44:32;97231.25;;;16.39;100.00
29045;BME280;16133;49.486;12.176;2022-08-21T04:46:58;97238.84;;;16.42;100.00
29045;BME280;16133;49.486;12.176;2022-08-21T04:49:23;97219.72;;;16.38;100.00
29045;BME280;16133;49.486;12.176;2022-08-21T04:51:49;97243.31;;;16.48;100.00
29045;BME280;16133;49.486;12.176;2022-08-21T04:54:19;97227.53;;;16.40;100.00
29045;BME280;16133;49.486;12.176;2022-08-21T04:56:52;97234.69;;;16.46;100.00
29045;BME280;16133;49.486;12.176;2022-08-21T04:59:22;97230.44;;;16.38;100.00
29045;BME280;16133;49.486;12.176;2022-08-21T05:01:50;97252.41;;;16.47;100.00
29045;BME280;16133;49.486;12.176;2022-08-21T05:04:18;97246.22;;;16.46;100.00
29045;BME280;16133;49.486;12.176;2022-08-21T05:06:48;97236.97;;;16.42;100.00
29045;BME280;16133;49.486;12.176;2022-08-21T05:09:17;97224.75;;;16.28;100.00
29045;BME280;16133;49.486;12.176;2022-08-21T05:11:43;97252.31;;;16.53;100.00
29045;BME280;16133;49.486;12.176;2022-08-21T05:14:10;97266.53;;;16.54;100.00
29045;BME280;16133;49.486;12.176;2022-08-21T05:16:36;97268.41;;;16.53;100.00
29045;BME280;16133;49.486;12.176;2022-08-21T05:19:01;97272.72;;;16.54;100.00
29045;BME280;16133;49.486;12.176;2022-08-21T05:21:27;97266.16;;;16.50;100.00
29045;BME280;16133;49.486;12.176;2022-08-21T05:23:52;97266.00;;;16.45;100.00
29045;BME280;16133;49.486;12.176;2022-08-21T05:26:17;97266.75;;;16.52;100.00
29045;BME280;16133;49.486;12.176;2022-08-21T05:28:43;97249.66;;;16.53;100.00
29045;BME280;16133;49.486;12.176;2022-08-21T05:31:08;97246.22;;;16.46;100.00
29045;BME280;16133;49.486;12.176;2022-08-21T05:33:33;97271.47;;;16.57;100.00
29045;BME280;16133;49.486;12.176;2022-08-21T05:35:59;97264.88;;;16.59;100.00
29045;BME280;16133;49.486;12.176;2022-08-21T05:38:24;97252.94;;;16.55;100.00
29045;BME280;16133;49.486;12.176;2022-08-21T05:40:52;97266.47;;;16.67;100.00
29045;BME280;16133;49.486;12.176;2022-08-21T05:43:18;97262.34;;;16.64;100.00
29045;BME280;16133;49.486;12.176;2022-08-21T05:45:43;97259.06;;;16.62;100.00
29045;BME280;16133;49.486;12.176;2022-08-21T05:48:18;97276.84;;;16.75;100.00
29045;BME280;16133;49.486;12.176;2022-08-21T05:50:44;97276.06;;;16.75;100.00
29045;BME280;16133;49.486;12.176;2022-08-21T05:53:11;97284.84;;;16.82;100.00
29045;BME280;16133;49.486;12.176;2022-08-21T05:55:38;97272.13;;;16.77;100.00
29045;BME280;16133;49.486;12.176;2022-08-21T05:58:03;97276.16;;;16.86;100.00
29045;BME280;16133;49.486;12.176;2022-08-21T06:00:29;97282.72;;;16.90;100.00
29045;BME280;16133;49.486;12.176;2022-08-21T06:02:55;97276.53;;;16.90;100.00
29045;BME280;16133;49.486;12.176;2022-08-21T06:05:20;97283.88;;;16.94;100.00
29045;BME280;16133;49.486;12.176;2022-08-21T06:07:45;97292.31;;;16.98;100.00
29045;BME280;16133;49.486;12.176;2022-08-21T06:10:11;97288.00;;;16.97;100.00
29045;BME280;16133;49.486;12.176;2022-08-21T06:12:36;97286.78;;;16.93;100.00
29045;BME280;16133;49.486;12.176;2022-08-21T06:15:02;97296.16;;;17.02;100.00
29045;BME280;16133;49.486;12.176;2022-08-21T06:17:28;97305.28;;;17.01;100.00
29045;BME280;16133;49.486;12.176;2022-08-21T06:19:53;97311.66;;;17.00;100.00
29045;BME280;16133;49.486;12.176;2022-08-21T06:22:19;97311.44;;;17.01;100.00
29045;BME280;16133;49.486;12.176;2022-08-21T06:24:45;97318.44;;;17.02;100.00
29045;BME280;16133;49.486;12.176;2022-08-21T06:27:10;97318.22;;;17.04;100.00
29045;BME280;16133;49.486;12.176;2022-08-21T06:29:36;97316.44;;;16.98;100.00
29045;BME280;16133;49.486;12.176;2022-08-21T06:32:02;97312.69;;;16.99;100.00
29045;BME280;16133;49.486;12.176;2022-08-21T06:34:28;97330.59;;;17.05;100.00
29045;BME280;16133;49.486;12.176;2022-08-21T06:36:53;97339.94;;;16.96;100.00
29045;BME280;16133;49.486;12.176;2022-08-21T06:39:18;97350.22;;;16.99;100.00
29045;BME280;16133;49.486;12.176;2022-08-21T06:41:44;97359.47;;;17.03;100.00
29045;BME280;16133;49.486;12.176;2022-08-21T06:44:09;97361.69;;;17.06;100.00
29045;BME280;16133;49.486;12.176;2022-08-21T06:46:35;97357.41;;;17.05;100.00
29045;BME280;16133;49.486;12.176;2022-08-21T06:49:00;97360.50;;;17.02;100.00
29045;BME280;16133;49.486;12.176;2022-08-21T06:51:26;97356.34;;;17.06;100.00
29045;BME280;16133;49.486;12.176;2022-08-21T06:53:52;97332.28;;;16.99;100.00
29045;BME280;16133;49.486;12.176;2022-08-21T06:56:17;97348.47;;;17.11;100.00
29045;BME280;16133;49.486;12.176;2022-08-21T06:58:43;97337.16;;;17.09;100.00
29045;BME280;16133;49.486;12.176;2022-08-21T07:01:08;97337.91;;;17.16;100.00
29045;BME280;16133;49.486;12.176;2022-08-21T07:03:37;97353.53;;;17.19;100.00
29045;BME280;16133;49.486;12.176;2022-08-21T07:06:04;97348.53;;;17.23;100.00
29045;BME280;16133;49.486;12.176;2022-08-21T07:08:30;97368.44;;;17.33;100.00
29045;BME280;16133;49.486;12.176;2022-08-21T07:10:57;97381.72;;;17.28;100.00
29045;BME280;16133;49.486;12.176;2022-08-21T07:13:23;97395.25;;;17.33;100.00
29045;BME280;16133;49.486;12.176;2022-08-21T07:15:48;97375.81;;;17.38;100.00
29045;BME280;16133;49.486;12.176;2022-08-21T07:18:14;97383.19;;;17.42;100.00
29045;BME280;16133;49.486;12.176;2022-08-21T07:20:40;97384.59;;;17.45;100.00
29045;BME280;16133;49.486;12.176;2022-08-21T07:23:09;97357.09;;;17.49;100.00
29045;BME280;16133;49.486;12.176;2022-08-21T07:25:36;97362.94;;;17.64;100.00
29045;BME280;16133;49.486;12.176;2022-08-21T07:28:02;97393.06;;;17.66;100.00
29045;BME280;16133;49.486;12.176;2022-08-21T07:30:28;97403.25;;;17.76;100.00
29045;BME280;16133;49.486;12.176;2022-08-21T07:32:53;97382.91;;;17.68;100.00
29045;BME280;16133;49.486;12.176;2022-08-21T07:35:20;97395.47;;;17.86;100.00
29045;BME280;16133;49.486;12.176;2022-08-21T07:37:46;97404.97;;;17.89;100.00
29045;BME280;16133;49.486;12.176;2022-08-21T07:40:12;97407.03;;;17.87;100.00
29045;BME280;16133;49.486;12.176;2022-08-21T07:42:45;97413.16;;;17.94;100.00
29045;BME280;16133;49.486;12.176;2022-08-21T07:45:12;97412.41;;;17.87;100.00
29045;BME280;16133;49.486;12.176;2022-08-21T07:47:37;97415.47;;;17.90;100.00
29045;BME280;16133;49.486;12.176;2022-08-21T07:50:04;97417.47;;;17.95;100.00
29045;BME280;16133;49.486;12.176;2022-08-21T07:52:29;97421.16;;;17.82;100.00
29045;BME280;16133;49.486;12.176;2022-08-21T07:54:55;97422.03;;;17.94;100.00
29045;BME280;16133;49.486;12.176;2022-08-21T07:57:20;97421.91;;;17.89;100.00
29045;BME280;16133;49.486;12.176;2022-08-21T07:59:46;97428.88;;;17.90;100.00
29045;BME280;16133;49.486;12.176;2022-08-21T08:02:28;97429.72;;;17.91;100.00
29045;BME280;16133;49.486;12.176;2022-08-21T08:04:53;97436.28;;;17.95;100.00
29045;BME280;16133;49.486;12.176;2022-08-21T08:07:19;97412.13;;;17.77;100.00
29045;BME280;16133;49.486;12.176;2022-08-21T08:09:45;97433.00;;;17.93;100.00
29045;BME280;16133;49.486;12.176;2022-08-21T08:12:10;97434.41;;;17.95;100.00
29045;BME280;16133;49.486;12.176;2022-08-21T08:14:36;97432.19;;;17.92;100.00
29045;BME280;16133;49.486;12.176;2022-08-21T08:17:02;97444.47;;;18.00;100.00
29045;BME280;16133;49.486;12.176;2022-08-21T08:19:28;97442.84;;;17.99;100.00
29045;BME280;16133;49.486;12.176;2022-08-21T08:21:53;97440.00;;;17.94;100.00
29045;BME280;16133;49.486;12.176;2022-08-21T08:24:19;97441.59;;;18.01;100.00
29045;BME280;16133;49.486;12.176;2022-08-21T08:26:44;97431.94;;;18.12;100.00
29045;BME280;16133;49.486;12.176;2022-08-21T08:29:09;97440.56;;;18.14;100.00
29045;BME280;16133;49.486;12.176;2022-08-21T08:31:35;97445.06;;;18.20;100.00
29045;BME280;16133;49.486;12.176;2022-08-21T08:34:00;97441.97;;;18.35;100.00
29045;BME280;16133;49.486;12.176;2022-08-21T08:36:34;97434.75;;;18.47;100.00
29045;BME280;16133;49.486;12.176;2022-08-21T08:38:59;97426.06;;;18.63;100.00
29045;BME280;16133;49.486;12.176;2022-08-21T08:41:26;97440.97;;;18.89;100.00
29045;BME280;16133;49.486;12.176;2022-08-21T08:43:53;97439.69;;;19.03;100.00
29045;BME280;16133;49.486;12.176;2022-08-21T08:46:27;97433.50;;;19.14;100.00
29045;BME280;16133;49.486;12.176;2022-08-21T08:49:15;97440.91;;;19.30;100.00
29045;BME280;16133;49.486;12.176;2022-08-21T08:51:50;97443.09;;;19.33;100.00
29045;BME280;16133;49.486;12.176;2022-08-21T08:54:18;97441.84;;;19.47;100.00
29045;BME280;16133;49.486;12.176;2022-08-21T08:56:44;97436.09;;;19.55;100.00
29045;BME280;16133;49.486;12.176;2022-08-21T08:59:22;97425.94;;;19.58;100.00
29045;BME280;16133;49.486;12.176;2022-08-21T09:01:49;97452.56;;;19.82;100.00
29045;BME280;16133;49.486;12.176;2022-08-21T09:04:22;97439.38;;;19.81;100.00
29045;BME280;16133;49.486;12.176;2022-08-21T09:07:12;97452.81;;;19.92;100.00
29045;BME280;16133;49.486;12.176;2022-08-21T09:10:10;97445.44;;;19.88;100.00
29045;BME280;16133;49.486;12.176;2022-08-21T09:13:11;97447.66;;;19.91;100.00
29045;BME280;16133;49.486;12.176;2022-08-21T09:16:00;97447.75;;;19.96;100.00
29045;BME280;16133;49.486;12.176;2022-08-21T09:18:54;97443.09;;;19.91;100.00
29045;BME280;16133;49.486;12.176;2022-08-21T09:21:41;97446.31;;;20.05;100.00
29045;BME280;16133;49.486;12.176;2022-08-21T09:26:49;97442.38;;;20.24;100.00
29045;BME280;16133;49.486;12.176;2022-08-21T09:29:20;97442.28;;;20.31;100.00
29045;BME280;16133;49.486;12.176;2022-08-21T09:31:47;97450.78;;;20.39;100.00
29045;BME280;16133;49.486;12.176;2022-08-21T09:34:27;97439.63;;;20.47;100.00
29045;BME280;16133;49.486;12.176;2022-08-21T09:36:54;97436.88;;;20.59;100.00
29045;BME280;16133;49.486;12.176;2022-08-21T09:39:32;97443.69;;;20.78;100.00
29045;BME280;16133;49.486;12.176;2022-08-21T09:42:05;97437.06;;;20.86;100.00
29045;BME280;16133;49.486;12.176;2022-08-21T09:44:36;97443.63;;;20.90;100.00
29045;BME280;16133;49.486;12.176;2022-08-21T09:47:06;97445.16;;;20.86;97.75
29045;BME280;16133;49.486;12.176;2022-08-21T09:49:34;97434.53;;;20.79;98.31
29045;BME280;16133;49.486;12.176;2022-08-21T09:52:01;97419.03;;;20.70;99.25
29045;BME280;16133;49.486;12.176;2022-08-21T09:54:31;97438.06;;;20.80;100.00
29045;BME280;16133;49.486;12.176;2022-08-21T09:57:14;97433.22;;;20.82;100.00
29045;BME280;16133;49.486;12.176;2022-08-21T10:00:10;97437.81;;;20.81;100.00
29045;BME280;16133;49.486;12.176;2022-08-21T10:02:40;97420.72;;;20.76;100.00
29045;BME280;16133;49.486;12.176;2022-08-21T10:05:23;97417.31;;;20.80;100.00
29045;BME280;16133;49.486;12.176;2022-08-21T10:07:49;97419.34;;;20.90;100.00
29045;BME280;16133;49.486;12.176;2022-08-21T10:12:56;97420.50;;;20.94;100.00
29045;BME280;16133;49.486;12.176;2022-08-21T10:15:47;97424.34;;;20.98;100.00
29045;BME280;16133;49.486;12.176;2022-08-21T10:18:41;97417.56;;;21.12;100.00
29045;BME280;16133;49.486;12.176;2022-08-21T10:21:22;97422.66;;;21.25;100.00
29045;BME280;16133;49.486;12.176;2022-08-21T10:24:13;97417.38;;;21.35;99.50
29045;BME280;16133;49.486;12.176;2022-08-21T10:26:53;97424.75;;;21.40;97.16
29045;BME280;16133;49.486;12.176;2022-08-21T10:35:12;97403.34;;;21.17;97.58
29045;BME280;16133;49.486;12.176;2022-08-21T10:40:34;97392.53;;;21.33;98.50
29045;BME280;16133;49.486;12.176;2022-08-21T10:43:39;97396.50;;;21.48;98.04
29045;BME280;16133;49.486;12.176;2022-08-21T10:51:16;97397.09;;;21.50;94.62
29045;BME280;16133;49.486;12.176;2022-08-21T10:54:02;97396.47;;;21.42;93.90
29045;BME280;16133;49.486;12.176;2022-08-21T10:56:32;97399.22;;;21.48;95.19
29045;BME280;16133;49.486;12.176;2022-08-21T11:01:49;97383.50;;;21.44;93.73
29045;BME280;16133;49.486;12.176;2022-08-21T11:04:30;97384.66;;;21.49;93.92
29045;BME280;16133;49.486;12.176;2022-08-21T11:07:02;97381.72;;;21.50;94.49
29045;BME280;16133;49.486;12.176;2022-08-21T11:09:29;97382.28;;;21.52;91.61
29045;BME280;16133;49.486;12.176;2022-08-21T11:11:58;97382.03;;;21.54;89.61
29045;BME280;16133;49.486;12.176;2022-08-21T11:14:47;97386.84;;;21.52;89.72
29045;BME280;16133;49.486;12.176;2022-08-21T11:17:16;97373.63;;;21.50;91.62
29045;BME280;16133;49.486;12.176;2022-08-21T11:20:27;97380.06;;;21.71;89.38
29045;BME280;16133;49.486;12.176;2022-08-21T11:26:23;97382.03;;;21.97;89.78
29045;BME280;16133;49.486;12.176;2022-08-21T11:28:54;97384.31;;;22.05;89.35
29045;BME280;16133;49.486;12.176;2022-08-21T11:34:14;97379.59;;;22.17;85.33
29045;BME280;16133;49.486;12.176;2022-08-21T11:36:51;97370.25;;;22.03;82.20
29045;BME280;16133;49.486;12.176;2022-08-21T11:43:03;97370.72;;;22.00;83.50
29045;BME280;16133;49.486;12.176;2022-08-21T11:45:31;97368.91;;;22.06;84.06
29045;BME280;16133;49.486;12.176;2022-08-21T11:48:13;97359.53;;;22.13;83.19
29045;BME280;16133;49.486;12.176;2022-08-21T11:50:42;97359.94;;;22.27;83.61
29045;BME280;16133;49.486;12.176;2022-08-21T11:53:14;97345.63;;;22.26;82.84
29045;BME280;16133;49.486;12.176;2022-08-21T11:56:03;97349.63;;;22.51;82.75
29045;BME280;16133;49.486;12.176;2022-08-21T11:58:48;97322.88;;;22.54;81.62
29045;BME280;16133;49.486;12.176;2022-08-21T12:01:21;97345.84;;;22.78;79.91
29045;BME280;16133;49.486;12.176;2022-08-21T12:03:58;97339.72;;;22.93;79.71
29045;BME280;16133;49.486;12.176;2022-08-21T12:06:32;97324.34;;;22.99;78.01
29045;BME280;16133;49.486;12.176;2022-08-21T12:09:29;97333.63;;;23.13;77.57
29045;BME280;16133;49.486;12.176;2022-08-21T12:12:02;97325.84;;;23.21;77.15
29045;BME280;16133;49.486;12.176;2022-08-21T12:14:46;97311.75;;;23.19;75.66
29045;BME280;16133;49.486;12.176;2022-08-21T12:17:24;97328.66;;;23.37;76.02
29045;BME280;16133;49.486;12.176;2022-08-21T12:20:01;97323.25;;;23.42;75.77
29045;BME280;16133;49.486;12.176;2022-08-21T12:22:39;97318.97;;;23.46;74.40
29045;BME280;16133;49.486;12.176;2022-08-21T12:25:08;97316.28;;;23.51;74.70
29045;BME280;16133;49.486;12.176;2022-08-21T12:27:47;97314.16;;;23.63;72.36
29045;BME280;16133;49.486;12.176;2022-08-21T12:30:33;97316.13;;;23.77;70.65
29045;BME280;16133;49.486;12.176;2022-08-21T12:33:01;97286.00;;;23.69;66.72
29045;BME280;16133;49.486;12.176;2022-08-21T12:35:37;97305.00;;;23.84;63.30
29045;BME280;16133;49.486;12.176;2022-08-21T12:38:12;97295.84;;;23.90;63.51
29045;BME280;16133;49.486;12.176;2022-08-21T12:40:44;97301.00;;;24.02;64.65
29045;BME280;16133;49.486;12.176;2022-08-21T12:43:33;97298.31;;;24.07;65.40
29045;BME280;16133;49.486;12.176;2022-08-21T12:46:00;97291.22;;;23.96;62.31
29045;BME280;16133;49.486;12.176;2022-08-21T12:48:49;97292.84;;;23.87;62.55
29045;BME280;16133;49.486;12.176;2022-08-21T12:51:26;97290.94;;;23.82;64.50
29045;BME280;16133;49.486;12.176;2022-08-21T12:53:58;97288.75;;;23.84;63.42
29045;BME280;16133;49.486;12.176;2022-08-21T12:56:30;97289.22;;;23.56;60.74
29045;BME280;16133;49.486;12.176;2022-08-21T12:59:04;97276.47;;;23.51;61.62
29045;BME280;16133;49.486;12.176;2022-08-21T13:01:39;97279.44;;;23.50;61.86
29045;BME280;16133;49.486;12.176;2022-08-21T13:04:16;97281.84;;;23.46;62.87
29045;BME280;16133;49.486;12.176;2022-08-21T13:06:45;97292.16;;;23.44;64.53
29045;BME280;16133;49.486;12.176;2022-08-21T13:09:13;97288.84;;;23.37;63.84
29045;BME280;16133;49.486;12.176;2022-08-21T13:11:42;97266.81;;;23.23;62.65
29045;BME280;16133;49.486;12.176;2022-08-21T13:14:30;97274.38;;;23.16;61.84
29045;BME280;16133;49.486;12.176;2022-08-21T13:16:58;97284.13;;;23.17;60.61
29045;BME280;16133;49.486;12.176;2022-08-21T13:19:24;97284.38;;;23.11;59.13
29045;BME280;16133;49.486;12.176;2022-08-21T13:21:51;97286.75;;;23.02;60.08
29045;BME280;16133;49.486;12.176;2022-08-21T13:24:25;97283.19;;;22.97;60.76
29045;BME280;16133;49.486;12.176;2022-08-21T13:26:52;97259.81;;;22.75;61.96
29045;BME280;16133;49.486;12.176;2022-08-21T13:29:21;97282.88;;;22.88;61.53
29045;BME280;16133;49.486;12.176;2022-08-21T13:31:49;97284.97;;;22.81;61.51